Edmonton City Centre Airport, Alberta

Past 24 Hour Conditions

This table is a summary of hourly weather conditions for the past 24 hours. This summary includes the following parameters: temperature, humidity, dew point, wind speed and direction, air pressure, visibility and/or wind chill and humidex.
Date / Time
(MDT)
Conditions Temp (°C) Humidity (%) Dew Point (°C) Wind (km/h) Pressure (kPa) Vis (km) Wind Chill
16 April 2014
16:00 Cloudy 1 45 -10 SE 22 gust 33 102.2 15 *
15:00 Cloudy 0 47 -10 SE 20 gust 30 102.2 15 *
14:00 Cloudy 0 49 -9 SE 24 102.2 15 *
13:00 Cloudy -1 51 -9 SE 22 102.3 15 -6
12:00 Cloudy -1 55 -9 SE 19 102.3 15 -6
11:00 Cloudy -2 56 -9 SSE 17 102.3 15 -7
10:00 Light Snow -2 58 -9 SSE 17 102.2 15 -7
9:00 Light Snow -3 58 -10 SSE 4 102.2 15 -4
8:00 Cloudy -3 61 -9 calm 102.2 15 *
7:00 Cloudy -4 64 -10 NE 4 102.2 15 -6
6:00 Cloudy -5   65 -10 NNE 6 102.2 15 -7
5:00 Cloudy -4 63 -10 E 7 102.1 15 -7
4:00 Mostly Cloudy -3 63 -10 ENE 7 102.2 15 -6
3:00 Cloudy -3 61 -10 ENE 9 102.1 15 -7
2:00 Light Snow -3 62 -9 NNE 7 102.1 15 -6
1:00 Cloudy -3 62 -9 NE 11 102.1 15 -7
00:00 Cloudy -3 61 -9 ENE 15 102.0 15 -8
15 April 2014
23:00 Mostly Cloudy -2 61 -9 ENE 15 102.0 15 -7
22:00 Cloudy -1 63 -7 NE 13 101.9 11 -6
21:00 Light Snow -1 62 -7 NE 19 101.8 4 -6
20:00 Light Snow -1 63 -7 NE 19 101.7 2 -6
19:00 Light Snow 0 64 -6 NNE 19 gust 30 101.7 5 -5
18:00 Light Snow 1 64 -6 N 19 101.5 5 *
17:00 Light Snow 2   62 -5 N 26 101.4 15 *
16:00 Light Snow 2   64 -5 N 20 101.4 15 *
N/A
Not available
 ↑ 
Highest temperature
 ↓ 
Lowest temperature
*
Value not significant.

If you require additional historical weather information, please visit Climate Data Online.